sensor_id;sensor_type;location;lat;lon;timestamp;P1;P2;P0
34176;PMS7003;20450;49.074;9.158;2022-12-07T00:01:03;16.50;16.50;11.00
34176;PMS7003;20450;49.074;9.158;2022-12-07T00:03:32;11.00;11.00;8.00
34176;PMS7003;20450;49.074;9.158;2022-12-07T00:05:59;11.50;11.50;9.00
34176;PMS7003;20450;49.074;9.158;2022-12-07T00:08:28;14.00;14.00;10.25
34176;PMS7003;20450;49.074;9.158;2022-12-07T00:11:01;12.50;12.50;8.50
34176;PMS7003;20450;49.074;9.158;2022-12-07T00:13:29;11.00;11.00;9.00
34176;PMS7003;20450;49.074;9.158;2022-12-07T00:15:59;10.75;10.75;8.25
34176;PMS7003;20450;49.074;9.158;2022-12-07T00:18:27;14.00;14.00;10.00
34176;PMS7003;20450;49.074;9.158;2022-12-07T00:20:58;12.25;12.25;8.75
34176;PMS7003;20450;49.074;9.158;2022-12-07T00:23:26;15.75;15.75;11.50
34176;PMS7003;20450;49.074;9.158;2022-12-07T00:25:53;13.50;13.50;9.75
34176;PMS7003;20450;49.074;9.158;2022-12-07T00:28:21;15.00;15.00;10.50
34176;PMS7003;20450;49.074;9.158;2022-12-07T00:30:48;15.75;15.75;12.25
34176;PMS7003;20450;49.074;9.158;2022-12-07T00:33:15;16.50;16.00;13.00
34176;PMS7003;20450;49.074;9.158;2022-12-07T00:35:42;16.00;15.00;12.25
34176;PMS7003;20450;49.074;9.158;2022-12-07T00:38:09;14.75;14.75;11.00
34176;PMS7003;20450;49.074;9.158;2022-12-07T00:40:35;13.00;13.00;10.25
34176;PMS7003;20450;49.074;9.158;2022-12-07T00:43:02;14.50;13.00;9.50
34176;PMS7003;20450;49.074;9.158;2022-12-07T00:45:30;14.50;12.50;8.75
34176;PMS7003;20450;49.074;9.158;2022-12-07T00:47:57;11.25;11.25;9.50
34176;PMS7003;20450;49.074;9.158;2022-12-07T00:50:24;11.00;11.00;9.00
34176;PMS7003;20450;49.074;9.158;2022-12-07T00:52:51;10.75;10.75;9.50
34176;PMS7003;20450;49.074;9.158;2022-12-07T00:55:18;13.00;13.00;10.00
34176;PMS7003;20450;49.074;9.158;2022-12-07T00:57:45;8.75;8.75;7.00
34176;PMS7003;20450;49.074;9.158;2022-12-07T01:00:12;12.75;11.50;8.25
34176;PMS7003;20450;49.074;9.158;2022-12-07T01:02:41;10.50;9.50;7.75
34176;PMS7003;20450;49.074;9.158;2022-12-07T01:05:08;10.25;10.25;7.75
34176;PMS7003;20450;49.074;9.158;2022-12-07T01:07:35;12.75;12.75;10.00
34176;PMS7003;20450;49.074;9.158;2022-12-07T01:10:02;10.75;9.75;7.75
34176;PMS7003;20450;49.074;9.158;2022-12-07T01:12:30;15.25;14.00;10.75
34176;PMS7003;20450;49.074;9.158;2022-12-07T01:14:57;12.00;12.00;9.00
34176;PMS7003;20450;49.074;9.158;2022-12-07T01:17:23;11.75;11.75;9.75
34176;PMS7003;20450;49.074;9.158;2022-12-07T01:19:52;13.75;13.25;11.00
34176;PMS7003;20450;49.074;9.158;2022-12-07T01:22:18;12.50;12.50;9.75
34176;PMS7003;20450;49.074;9.158;2022-12-07T01:24:45;7.00;7.00;4.75
34176;PMS7003;20450;49.074;9.158;2022-12-07T01:27:12;13.25;12.75;10.00
34176;PMS7003;20450;49.074;9.158;2022-12-07T01:29:39;14.25;14.00;10.75
34176;PMS7003;20450;49.074;9.158;2022-12-07T01:32:06;11.50;11.50;9.00
34176;PMS7003;20450;49.074;9.158;2022-12-07T01:34:34;12.00;12.00;9.50
34176;PMS7003;20450;49.074;9.158;2022-12-07T01:37:02;15.50;14.50;10.00
34176;PMS7003;20450;49.074;9.158;2022-12-07T01:39:29;15.25;14.00;11.00
34176;PMS7003;20450;49.074;9.158;2022-12-07T01:41:56;11.00;11.00;9.00
34176;PMS7003;20450;49.074;9.158;2022-12-07T01:44:23;11.50;11.00;8.00
34176;PMS7003;20450;49.074;9.158;2022-12-07T01:46:54;14.25;12.50;10.00
34176;PMS7003;20450;49.074;9.158;2022-12-07T01:49:28;15.00;13.50;11.00
34176;PMS7003;20450;49.074;9.158;2022-12-07T01:52:09;11.25;11.25;8.00
34176;PMS7003;20450;49.074;9.158;2022-12-07T01:54:44;12.50;12.50;8.75
34176;PMS7003;20450;49.074;9.158;2022-12-07T01:57:15;11.75;11.75;9.00
34176;PMS7003;20450;49.074;9.158;2022-12-07T01:59:44;11.00;11.00;9.75
34176;PMS7003;20450;49.074;9.158;2022-12-07T02:02:17;15.75;15.25;12.00
34176;PMS7003;20450;49.074;9.158;2022-12-07T02:04:50;13.50;13.50;10.75
34176;PMS7003;20450;49.074;9.158;2022-12-07T02:07:20;14.00;14.00;12.00
34176;PMS7003;20450;49.074;9.158;2022-12-07T02:09:50;12.75;12.75;10.25
34176;PMS7003;20450;49.074;9.158;2022-12-07T02:12:17;14.75;14.75;11.25
34176;PMS7003;20450;49.074;9.158;2022-12-07T02:14:44;17.00;15.75;11.00
34176;PMS7003;20450;49.074;9.158;2022-12-07T02:17:14;15.00;15.00;11.00
34176;PMS7003;20450;49.074;9.158;2022-12-07T02:20:00;15.00;15.00;11.50
34176;PMS7003;20450;49.074;9.158;2022-12-07T02:23:00;13.50;13.50;10.75
34176;PMS7003;20450;49.074;9.158;2022-12-07T02:26:03;16.00;14.25;11.50
34176;PMS7003;20450;49.074;9.158;2022-12-07T02:29:03;14.00;14.00;11.00
34176;PMS7003;20450;49.074;9.158;2022-12-07T02:31:43;15.25;14.75;11.00
34176;PMS7003;20450;49.074;9.158;2022-12-07T02:34:22;13.00;13.00;9.00
34176;PMS7003;20450;49.074;9.158;2022-12-07T02:37:02;14.50;14.50;11.25
34176;PMS7003;20450;49.074;9.158;2022-12-07T02:39:44;17.00;16.25;13.00
34176;PMS7003;20450;49.074;9.158;2022-12-07T02:42:17;13.25;13.25;10.50
34176;PMS7003;20450;49.074;9.158;2022-12-07T02:44:55;13.25;13.25;11.50
34176;PMS7003;20450;49.074;9.158;2022-12-07T02:47:23;15.00;14.75;11.00
34176;PMS7003;20450;49.074;9.158;2022-12-07T02:49:53;18.75;18.00;14.00
34176;PMS7003;20450;49.074;9.158;2022-12-07T02:52:20;15.75;15.75;11.00
34176;PMS7003;20450;49.074;9.158;2022-12-07T02:54:47;21.25;18.50;13.25
34176;PMS7003;20450;49.074;9.158;2022-12-07T02:57:18;13.50;13.50;11.25
34176;PMS7003;20450;49.074;9.158;2022-12-07T03:00:06;15.25;15.25;10.00
34176;PMS7003;20450;49.074;9.158;2022-12-07T03:02:43;14.25;14.25;11.25
34176;PMS7003;20450;49.074;9.158;2022-12-07T03:05:23;17.50;17.50;14.00
34176;PMS7003;20450;49.074;9.158;2022-12-07T03:08:09;24.75;21.75;14.25
34176;PMS7003;20450;49.074;9.158;2022-12-07T03:10:47;16.25;15.75;11.50
34176;PMS7003;20450;49.074;9.158;2022-12-07T03:13:24;17.25;17.25;12.75
34176;PMS7003;20450;49.074;9.158;2022-12-07T03:16:02;20.00;20.00;12.50
34176;PMS7003;20450;49.074;9.158;2022-12-07T03:18:38;13.25;13.00;10.00
34176;PMS7003;20450;49.074;9.158;2022-12-07T03:21:14;14.50;14.50;12.00
34176;PMS7003;20450;49.074;9.158;2022-12-07T03:23:48;15.75;14.25;10.50
34176;PMS7003;20450;49.074;9.158;2022-12-07T03:26:23;17.75;17.75;14.00
34176;PMS7003;20450;49.074;9.158;2022-12-07T03:28:58;15.75;15.00;12.50
34176;PMS7003;20450;49.074;9.158;2022-12-07T03:31:35;13.00;13.00;10.25
34176;PMS7003;20450;49.074;9.158;2022-12-07T03:34:09;16.25;16.25;12.00
34176;PMS7003;20450;49.074;9.158;2022-12-07T03:36:43;17.50;17.50;12.75
34176;PMS7003;20450;49.074;9.158;2022-12-07T03:39:18;19.25;19.25;15.00
34176;PMS7003;20450;49.074;9.158;2022-12-07T03:41:55;16.00;12.00;8.25
34176;PMS7003;20450;49.074;9.158;2022-12-07T03:44:28;16.75;16.75;11.50
34176;PMS7003;20450;49.074;9.158;2022-12-07T03:47:01;12.00;12.00;8.50
34176;PMS7003;20450;49.074;9.158;2022-12-07T03:49:40;20.25;20.25;16.00
34176;PMS7003;20450;49.074;9.158;2022-12-07T03:52:16;16.75;16.75;14.50
34176;PMS7003;20450;49.074;9.158;2022-12-07T03:54:53;16.75;16.75;12.25
34176;PMS7003;20450;49.074;9.158;2022-12-07T03:57:26;16.00;16.00;12.50
34176;PMS7003;20450;49.074;9.158;2022-12-07T03:59:58;15.25;15.25;12.00
34176;PMS7003;20450;49.074;9.158;2022-12-07T04:02:27;15.75;15.25;12.00
34176;PMS7003;20450;49.074;9.158;2022-12-07T04:04:55;17.00;17.00;11.75
34176;PMS7003;20450;49.074;9.158;2022-12-07T04:07:23;16.25;15.50;13.25
34176;PMS7003;20450;49.074;9.158;2022-12-07T04:09:50;12.50;12.00;9.25
34176;PMS7003;20450;49.074;9.158;2022-12-07T04:12:17;18.00;17.00;13.75
34176;PMS7003;20450;49.074;9.158;2022-12-07T04:14:44;13.75;13.75;11.00
34176;PMS7003;20450;49.074;9.158;2022-12-07T04:17:11;14.25;13.00;11.00
34176;PMS7003;20450;49.074;9.158;2022-12-07T04:19:40;15.75;14.25;10.00
34176;PMS7003;20450;49.074;9.158;2022-12-07T04:22:07;15.25;13.25;11.00
34176;PMS7003;20450;49.074;9.158;2022-12-07T04:24:34;16.75;16.00;12.25
34176;PMS7003;20450;49.074;9.158;2022-12-07T04:27:02;17.75;17.75;12.00
34176;PMS7003;20450;49.074;9.158;2022-12-07T04:29:30;17.25;17.25;14.25
34176;PMS7003;20450;49.074;9.158;2022-12-07T04:31:56;15.25;14.25;11.25
34176;PMS7003;20450;49.074;9.158;2022-12-07T04:34:23;17.75;16.25;13.25
34176;PMS7003;20450;49.074;9.158;2022-12-07T04:36:52;13.25;13.25;9.75
34176;PMS7003;20450;49.074;9.158;2022-12-07T04:39:20;16.00;16.00;11.50
34176;PMS7003;20450;49.074;9.158;2022-12-07T04:41:50;15.00;14.00;10.00
34176;PMS7003;20450;49.074;9.158;2022-12-07T04:44:17;14.50;14.50;11.25
34176;PMS7003;20450;49.074;9.158;2022-12-07T04:46:45;15.75;15.75;11.25
34176;PMS7003;20450;49.074;9.158;2022-12-07T04:49:13;17.00;13.75;10.75
34176;PMS7003;20450;49.074;9.158;2022-12-07T04:51:41;17.50;16.75;13.00
34176;PMS7003;20450;49.074;9.158;2022-12-07T04:54:10;14.50;12.75;9.00
34176;PMS7003;20450;49.074;9.158;2022-12-07T04:56:38;17.00;17.00;12.00
34176;PMS7003;20450;49.074;9.158;2022-12-07T04:59:06;19.75;18.25;13.50
34176;PMS7003;20450;49.074;9.158;2022-12-07T05:01:33;19.25;19.00;16.25
34176;PMS7003;20450;49.074;9.158;2022-12-07T05:04:00;18.25;12.75;9.25
34176;PMS7003;20450;49.074;9.158;2022-12-07T05:06:27;20.00;17.00;14.00
34176;PMS7003;20450;49.074;9.158;2022-12-07T05:08:55;17.25;17.25;13.00
34176;PMS7003;20450;49.074;9.158;2022-12-07T05:11:23;19.25;18.00;13.00
34176;PMS7003;20450;49.074;9.158;2022-12-07T05:13:50;17.00;17.00;14.00
34176;PMS7003;20450;49.074;9.158;2022-12-07T05:16:17;14.75;13.50;10.25
34176;PMS7003;20450;49.074;9.158;2022-12-07T05:18:45;17.25;17.25;15.00
34176;PMS7003;20450;49.074;9.158;2022-12-07T05:21:11;19.25;19.25;15.25
34176;PMS7003;20450;49.074;9.158;2022-12-07T05:23:38;21.00;20.00;15.00
34176;PMS7003;20450;49.074;9.158;2022-12-07T05:26:05;17.75;16.25;12.75
34176;PMS7003;20450;49.074;9.158;2022-12-07T05:28:33;11.50;11.50;11.50
34176;PMS7003;20450;49.074;9.158;2022-12-07T05:31:00;19.25;18.25;14.00
34176;PMS7003;20450;49.074;9.158;2022-12-07T05:33:27;20.50;20.50;15.75
34176;PMS7003;20450;49.074;9.158;2022-12-07T05:35:54;16.50;16.50;13.25
34176;PMS7003;20450;49.074;9.158;2022-12-07T05:38:21;14.25;13.00;9.50
34176;PMS7003;20450;49.074;9.158;2022-12-07T05:40:48;21.75;19.25;12.25
34176;PMS7003;20450;49.074;9.158;2022-12-07T05:43:15;18.25;14.50;11.25
34176;PMS7003;20450;49.074;9.158;2022-12-07T05:45:43;19.25;19.25;13.00
34176;PMS7003;20450;49.074;9.158;2022-12-07T05:48:10;17.75;17.00;12.25
34176;PMS7003;20450;49.074;9.158;2022-12-07T05:50:37;13.75;13.25;9.25
34176;PMS7003;20450;49.074;9.158;2022-12-07T05:53:04;15.75;15.75;11.00
34176;PMS7003;20450;49.074;9.158;2022-12-07T05:55:31;16.25;15.75;12.00
34176;PMS7003;20450;49.074;9.158;2022-12-07T05:57:58;15.75;15.75;12.25
34176;PMS7003;20450;49.074;9.158;2022-12-07T06:00:25;19.75;17.50;13.00
34176;PMS7003;20450;49.074;9.158;2022-12-07T06:02:53;15.00;15.00;10.00
34176;PMS7003;20450;49.074;9.158;2022-12-07T06:05:20;15.25;13.75;11.00
34176;PMS7003;20450;49.074;9.158;2022-12-07T06:07:47;17.25;17.25;13.00
34176;PMS7003;20450;49.074;9.158;2022-12-07T06:10:14;23.00;22.50;17.75
34176;PMS7003;20450;49.074;9.158;2022-12-07T06:12:41;16.25;15.50;11.25
34176;PMS7003;20450;49.074;9.158;2022-12-07T06:15:09;9.25;9.25;6.00
34176;PMS7003;20450;49.074;9.158;2022-12-07T06:17:36;19.25;18.75;13.00
34176;PMS7003;20450;49.074;9.158;2022-12-07T06:20:05;16.25;15.75;13.25
34176;PMS7003;20450;49.074;9.158;2022-12-07T06:22:33;21.75;21.75;17.00
34176;PMS7003;20450;49.074;9.158;2022-12-07T06:25:00;23.00;22.75;18.25
34176;PMS7003;20450;49.074;9.158;2022-12-07T06:27:33;43.00;36.67;24.33
34176;PMS7003;20450;49.074;9.158;2022-12-07T06:30:00;25.50;25.50;18.75
34176;PMS7003;20450;49.074;9.158;2022-12-07T06:32:28;34.75;31.00;22.00
34176;PMS7003;20450;49.074;9.158;2022-12-07T06:34:55;33.00;29.75;20.50
34176;PMS7003;20450;49.074;9.158;2022-12-07T06:37:23;29.75;29.75;21.50
34176;PMS7003;20450;49.074;9.158;2022-12-07T06:39:50;32.00;28.75;21.00
34176;PMS7003;20450;49.074;9.158;2022-12-07T06:42:17;26.50;24.00;19.25
34176;PMS7003;20450;49.074;9.158;2022-12-07T06:44:44;27.00;25.25;18.50
34176;PMS7003;20450;49.074;9.158;2022-12-07T06:47:11;30.75;30.25;21.25
34176;PMS7003;20450;49.074;9.158;2022-12-07T06:49:58;32.25;30.75;21.00
34176;PMS7003;20450;49.074;9.158;2022-12-07T06:52:26;28.00;27.00;19.75
34176;PMS7003;20450;49.074;9.158;2022-12-07T06:54:53;25.75;25.75;18.25
34176;PMS7003;20450;49.074;9.158;2022-12-07T06:57:20;25.00;25.00;19.50
34176;PMS7003;20450;49.074;9.158;2022-12-07T06:59:47;25.75;25.25;18.75
34176;PMS7003;20450;49.074;9.158;2022-12-07T07:02:14;19.50;19.50;15.00
34176;PMS7003;20450;49.074;9.158;2022-12-07T07:04:41;17.00;16.50;15.25
34176;PMS7003;20450;49.074;9.158;2022-12-07T07:07:08;22.75;22.75;17.00
34176;PMS7003;20450;49.074;9.158;2022-12-07T07:09:36;19.25;18.75;13.00
34176;PMS7003;20450;49.074;9.158;2022-12-07T07:12:03;16.75;16.75;14.00
34176;PMS7003;20450;49.074;9.158;2022-12-07T07:14:30;18.00;17.00;13.25
34176;PMS7003;20450;49.074;9.158;2022-12-07T07:16:57;20.75;19.50;14.00
34176;PMS7003;20450;49.074;9.158;2022-12-07T07:19:24;19.50;19.50;16.50
34176;PMS7003;20450;49.074;9.158;2022-12-07T07:21:51;22.00;21.50;14.25
34176;PMS7003;20450;49.074;9.158;2022-12-07T07:24:18;21.25;20.75;14.75
34176;PMS7003;20450;49.074;9.158;2022-12-07T07:26:46;20.25;20.25;14.50
34176;PMS7003;20450;49.074;9.158;2022-12-07T07:29:13;19.25;18.25;14.00
34176;PMS7003;20450;49.074;9.158;2022-12-07T07:31:40;15.50;15.50;13.50
34176;PMS7003;20450;49.074;9.158;2022-12-07T07:34:07;17.50;17.50;14.00
34176;PMS7003;20450;49.074;9.158;2022-12-07T07:36:33;14.50;14.50;10.25
34176;PMS7003;20450;49.074;9.158;2022-12-07T07:39:00;18.00;18.00;13.25
34176;PMS7003;20450;49.074;9.158;2022-12-07T07:41:27;19.00;16.00;12.75
34176;PMS7003;20450;49.074;9.158;2022-12-07T07:43:55;18.50;18.50;14.50
34176;PMS7003;20450;49.074;9.158;2022-12-07T07:46:22;18.00;18.00;13.50
34176;PMS7003;20450;49.074;9.158;2022-12-07T07:48:50;20.75;20.75;16.25
34176;PMS7003;20450;49.074;9.158;2022-12-07T07:51:16;23.50;23.50;17.75
34176;PMS7003;20450;49.074;9.158;2022-12-07T07:53:43;18.00;17.75;14.00
34176;PMS7003;20450;49.074;9.158;2022-12-07T07:56:10;19.00;17.75;13.75
34176;PMS7003;20450;49.074;9.158;2022-12-07T07:58:37;18.75;17.50;13.75
34176;PMS7003;20450;49.074;9.158;2022-12-07T08:01:06;19.00;16.75;13.00
34176;PMS7003;20450;49.074;9.158;2022-12-07T08:03:34;16.75;15.00;14.00
34176;PMS7003;20450;49.074;9.158;2022-12-07T08:06:01;16.75;15.50;10.75
34176;PMS7003;20450;49.074;9.158;2022-12-07T08:08:29;17.00;17.00;12.00
34176;PMS7003;20450;49.074;9.158;2022-12-07T08:10:56;19.50;17.75;14.75
34176;PMS7003;20450;49.074;9.158;2022-12-07T08:13:23;21.00;19.25;15.25
34176;PMS7003;20450;49.074;9.158;2022-12-07T08:15:56;18.00;18.00;14.25
34176;PMS7003;20450;49.074;9.158;2022-12-07T08:18:24;22.75;22.75;16.50
34176;PMS7003;20450;49.074;9.158;2022-12-07T08:20:51;23.00;23.00;18.25
34176;PMS7003;20450;49.074;9.158;2022-12-07T08:23:18;19.25;19.25;16.25
34176;PMS7003;20450;49.074;9.158;2022-12-07T08:25:45;20.75;20.75;14.75
34176;PMS7003;20450;49.074;9.158;2022-12-07T08:28:12;21.50;20.75;15.00
34176;PMS7003;20450;49.074;9.158;2022-12-07T08:30:38;20.75;20.75;13.75
34176;PMS7003;20450;49.074;9.158;2022-12-07T08:33:05;23.00;20.25;16.25
34176;PMS7003;20450;49.074;9.158;2022-12-07T08:35:34;22.00;21.75;15.50
34176;PMS7003;20450;49.074;9.158;2022-12-07T08:38:01;21.50;21.50;15.50
34176;PMS7003;20450;49.074;9.158;2022-12-07T08:40:28;30.50;28.00;20.50
34176;PMS7003;20450;49.074;9.158;2022-12-07T08:42:56;33.75;31.50;20.50
34176;PMS7003;20450;49.074;9.158;2022-12-07T08:45:23;27.00;27.00;20.50
34176;PMS7003;20450;49.074;9.158;2022-12-07T08:47:54;31.00;28.00;20.00
34176;PMS7003;20450;49.074;9.158;2022-12-07T08:50:27;23.00;19.75;14.00
34176;PMS7003;20450;49.074;9.158;2022-12-07T08:52:56;25.25;21.50;17.75
34176;PMS7003;20450;49.074;9.158;2022-12-07T08:55:26;25.25;20.00;16.75
34176;PMS7003;20450;49.074;9.158;2022-12-07T08:57:55;23.25;20.25;14.50
34176;PMS7003;20450;49.074;9.158;2022-12-07T09:00:24;17.75;17.25;14.00
34176;PMS7003;20450;49.074;9.158;2022-12-07T09:02:52;24.25;22.75;16.75
34176;PMS7003;20450;49.074;9.158;2022-12-07T09:05:20;19.25;19.25;15.25
34176;PMS7003;20450;49.074;9.158;2022-12-07T09:07:48;22.00;20.25;14.00
34176;PMS7003;20450;49.074;9.158;2022-12-07T09:10:22;20.25;20.25;13.75
34176;PMS7003;20450;49.074;9.158;2022-12-07T09:12:49;14.75;14.75;11.00
34176;PMS7003;20450;49.074;9.158;2022-12-07T09:15:16;16.00;15.00;12.00
34176;PMS7003;20450;49.074;9.158;2022-12-07T09:17:43;15.25;14.75;12.00
34176;PMS7003;20450;49.074;9.158;2022-12-07T09:20:10;15.25;14.50;11.00
34176;PMS7003;20450;49.074;9.158;2022-12-07T09:22:38;11.00;11.00;9.00
34176;PMS7003;20450;49.074;9.158;2022-12-07T09:25:05;40.25;36.00;29.00
34176;PMS7003;20450;49.074;9.158;2022-12-07T09:27:34;30.75;24.75;16.75
34176;PMS7003;20450;49.074;9.158;2022-12-07T09:30:01;18.75;16.50;14.00
34176;PMS7003;20450;49.074;9.158;2022-12-07T09:32:29;16.50;16.00;13.50
34176;PMS7003;20450;49.074;9.158;2022-12-07T09:34:56;17.50;16.25;11.00
34176;PMS7003;20450;49.074;9.158;2022-12-07T09:37:23;14.00;13.00;9.00
34176;PMS7003;20450;49.074;9.158;2022-12-07T09:39:50;7.50;7.50;5.75
34176;PMS7003;20450;49.074;9.158;2022-12-07T09:42:27;13.25;10.75;8.25
34176;PMS7003;20450;49.074;9.158;2022-12-07T09:45:02;14.50;14.50;12.50
34176;PMS7003;20450;49.074;9.158;2022-12-07T09:47:34;12.75;10.25;9.00
34176;PMS7003;20450;49.074;9.158;2022-12-07T09:50:03;13.50;10.75;8.25
34176;PMS7003;20450;49.074;9.158;2022-12-07T09:52:38;15.50;12.00;9.25
34176;PMS7003;20450;49.074;9.158;2022-12-07T09:55:09;13.75;11.00;9.00
34176;PMS7003;20450;49.074;9.158;2022-12-07T09:57:38;11.75;10.00;7.00
34176;PMS7003;20450;49.074;9.158;2022-12-07T10:00:12;14.75;14.00;13.00
34176;PMS7003;20450;49.074;9.158;2022-12-07T10:02:43;11.50;11.50;10.00
34176;PMS7003;20450;49.074;9.158;2022-12-07T10:05:14;10.25;10.25;7.25
34176;PMS7003;20450;49.074;9.158;2022-12-07T10:07:50;10.50;8.25;6.00
34176;PMS7003;20450;49.074;9.158;2022-12-07T10:10:18;7.00;7.00;5.00
34176;PMS7003;20450;49.074;9.158;2022-12-07T10:12:52;6.50;5.25;5.00
34176;PMS7003;20450;49.074;9.158;2022-12-07T10:15:25;7.50;7.50;6.50
34176;PMS7003;20450;49.074;9.158;2022-12-07T10:18:17;10.00;10.00;8.75
34176;PMS7003;20450;49.074;9.158;2022-12-07T10:21:01;11.00;9.75;9.25
34176;PMS7003;20450;49.074;9.158;2022-12-07T10:23:36;10.50;10.50;9.50
34176;PMS7003;20450;49.074;9.158;2022-12-07T10:26:19;12.75;12.75;11.00
34176;PMS7003;20450;49.074;9.158;2022-12-07T10:28:54;24.00;21.00;18.25
34176;PMS7003;20450;49.074;9.158;2022-12-07T10:31:23;24.00;22.75;20.25
34176;PMS7003;20450;49.074;9.158;2022-12-07T10:33:51;25.25;24.75;21.00
34176;PMS7003;20450;49.074;9.158;2022-12-07T10:36:22;20.25;18.75;17.25
34176;PMS7003;20450;49.074;9.158;2022-12-07T10:38:52;9.50;9.50;8.50
34176;PMS7003;20450;49.074;9.158;2022-12-07T10:41:26;10.25;10.25;8.00
34176;PMS7003;20450;49.074;9.158;2022-12-07T10:43:54;8.00;8.00;4.25
34176;PMS7003;20450;49.074;9.158;2022-12-07T10:46:39;10.75;10.75;9.00
34176;PMS7003;20450;49.074;9.158;2022-12-07T10:49:28;10.00;9.50;6.75
34176;PMS7003;20450;49.074;9.158;2022-12-07T10:52:18;11.00;10.00;8.50
34176;PMS7003;20450;49.074;9.158;2022-12-07T10:55:13;9.50;9.50;7.25
34176;PMS7003;20450;49.074;9.158;2022-12-07T10:57:53;9.00;9.00;7.00
34176;PMS7003;20450;49.074;9.158;2022-12-07T11:00:43;10.75;10.75;8.25
34176;PMS7003;20450;49.074;9.158;2022-12-07T11:03:31;11.00;8.25;6.00
34176;PMS7003;20450;49.074;9.158;2022-12-07T11:06:14;9.00;6.75;4.50
34176;PMS7003;20450;49.074;9.158;2022-12-07T11:09:00;10.25;10.25;6.75
34176;PMS7003;20450;49.074;9.158;2022-12-07T11:12:12;13.00;10.75;8.00
34176;PMS7003;20450;49.074;9.158;2022-12-07T11:14:54;10.50;8.50;5.75
34176;PMS7003;20450;49.074;9.158;2022-12-07T11:17:32;10.00;8.75;6.25
34176;PMS7003;20450;49.074;9.158;2022-12-07T11:20:14;11.25;11.25;8.00
34176;PMS7003;20450;49.074;9.158;2022-12-07T11:23:02;11.75;11.25;9.00
34176;PMS7003;20450;49.074;9.158;2022-12-07T11:25:44;10.50;9.25;7.00
34176;PMS7003;20450;49.074;9.158;2022-12-07T11:28:26;14.25;14.25;11.25
34176;PMS7003;20450;49.074;9.158;2022-12-07T11:31:24;12.50;12.50;10.50
34176;PMS7003;20450;49.074;9.158;2022-12-07T11:34:05;15.25;14.00;10.50
34176;PMS7003;20450;49.074;9.158;2022-12-07T11:36:47;14.75;13.00;10.00
34176;PMS7003;20450;49.074;9.158;2022-12-07T11:39:22;14.50;14.00;11.50
34176;PMS7003;20450;49.074;9.158;2022-12-07T11:42:00;10.75;9.00;8.50
34176;PMS7003;20450;49.074;9.158;2022-12-07T11:44:33;15.25;15.00;11.00
34176;PMS7003;20450;49.074;9.158;2022-12-07T11:47:12;18.00;15.75;12.50
34176;PMS7003;20450;49.074;9.158;2022-12-07T11:49:47;18.25;18.25;15.50
34176;PMS7003;20450;49.074;9.158;2022-12-07T11:52:25;17.50;16.50;13.75
34176;PMS7003;20450;49.074;9.158;2022-12-07T11:55:06;17.25;17.25;13.25
34176;PMS7003;20450;49.074;9.158;2022-12-07T11:57:50;17.00;15.50;12.50
34176;PMS7003;20450;49.074;9.158;2022-12-07T12:00:27;17.75;17.50;14.50
34176;PMS7003;20450;49.074;9.158;2022-12-07T12:02:55;21.25;20.00;17.75
34176;PMS7003;20450;49.074;9.158;2022-12-07T12:05:30;21.75;17.00;14.00
34176;PMS7003;20450;49.074;9.158;2022-12-07T12:08:01;21.50;19.50;15.50
34176;PMS7003;20450;49.074;9.158;2022-12-07T12:11:02;18.75;17.75;13.50
34176;PMS7003;20450;49.074;9.158;2022-12-07T12:13:55;18.00;17.00;14.75
34176;PMS7003;20450;49.074;9.158;2022-12-07T12:17:13;17.75;17.75;12.75
34176;PMS7003;20450;49.074;9.158;2022-12-07T12:20:16;17.50;17.50;14.50
34176;PMS7003;20450;49.074;9.158;2022-12-07T12:22:53;19.50;16.50;13.00
34176;PMS7003;20450;49.074;9.158;2022-12-07T12:25:36;18.50;15.00;11.00
34176;PMS7003;20450;49.074;9.158;2022-12-07T12:28:18;26.75;23.00;17.75
34176;PMS7003;20450;49.074;9.158;2022-12-07T12:31:06;18.75;16.75;14.75
34176;PMS7003;20450;49.074;9.158;2022-12-07T12:33:42;19.25;19.00;14.75
34176;PMS7003;20450;49.074;9.158;2022-12-07T12:36:19;16.75;15.75;12.50
34176;PMS7003;20450;49.074;9.158;2022-12-07T12:39:07;15.75;15.75;12.50
34176;PMS7003;20450;49.074;9.158;2022-12-07T12:41:58;14.75;14.75;11.25
34176;PMS7003;20450;49.074;9.158;2022-12-07T12:47:42;21.50;19.25;15.75
34176;PMS7003;20450;49.074;9.158;2022-12-07T12:50:21;17.75;14.00;9.75
34176;PMS7003;20450;49.074;9.158;2022-12-07T12:53:00;14.25;13.75;11.00
34176;PMS7003;20450;49.074;9.158;2022-12-07T12:55:58;8.75;8.25;5.50
34176;PMS7003;20450;49.074;9.158;2022-12-07T12:58:50;13.75;12.25;8.75
34176;PMS7003;20450;49.074;9.158;2022-12-07T13:01:56;14.50;14.50;10.50
34176;PMS7003;20450;49.074;9.158;2022-12-07T13:04:51;13.50;13.50;11.00
34176;PMS7003;20450;49.074;9.158;2022-12-07T13:07:47;13.00;13.00;11.25
34176;PMS7003;20450;49.074;9.158;2022-12-07T13:10:24;14.00;14.00;10.00
34176;PMS7003;20450;49.074;9.158;2022-12-07T13:13:04;14.50;13.75;11.00
34176;PMS7003;20450;49.074;9.158;2022-12-07T13:22:35;18.00;17.50;15.50
34176;PMS7003;20450;49.074;9.158;2022-12-07T13:25:21;15.50;15.50;11.75
34176;PMS7003;20450;49.074;9.158;2022-12-07T13:28:01;24.75;23.75;20.00
34176;PMS7003;20450;49.074;9.158;2022-12-07T13:30:40;39.75;34.25;27.75
34176;PMS7003;20450;49.074;9.158;2022-12-07T13:33:17;24.00;22.75;20.25
34176;PMS7003;20450;49.074;9.158;2022-12-07T13:35:44;26.25;22.25;19.25
34176;PMS7003;20450;49.074;9.158;2022-12-07T13:38:22;18.25;17.25;15.25
34176;PMS7003;20450;49.074;9.158;2022-12-07T13:40:59;19.00;17.25;13.50
34176;PMS7003;20450;49.074;9.158;2022-12-07T13:43:41;17.25;16.25;13.00
34176;PMS7003;20450;49.074;9.158;2022-12-07T13:46:16;17.00;17.00;14.00
34176;PMS7003;20450;49.074;9.158;2022-12-07T13:48:52;15.50;14.75;12.00
34176;PMS7003;20450;49.074;9.158;2022-12-07T13:51:20;17.75;17.75;14.50
34176;PMS7003;20450;49.074;9.158;2022-12-07T13:53:51;16.00;15.50;12.25
34176;PMS7003;20450;49.074;9.158;2022-12-07T13:56:21;9.75;9.75;7.25
34176;PMS7003;20450;49.074;9.158;2022-12-07T13:59:02;14.00;12.50;9.25
34176;PMS7003;20450;49.074;9.158;2022-12-07T14:01:31;13.75;13.75;9.50
34176;PMS7003;20450;49.074;9.158;2022-12-07T14:06:49;15.00;15.00;11.50
34176;PMS7003;20450;49.074;9.158;2022-12-07T14:09:18;14.50;14.50;11.50
34176;PMS7003;20450;49.074;9.158;2022-12-07T14:11:49;15.75;13.25;10.25
34176;PMS7003;20450;49.074;9.158;2022-12-07T14:14:20;17.50;17.50;11.25
34176;PMS7003;20450;49.074;9.158;2022-12-07T14:16:58;18.00;16.00;11.50
34176;PMS7003;20450;49.074;9.158;2022-12-07T14:19:40;17.25;15.00;10.00
34176;PMS7003;20450;49.074;9.158;2022-12-07T14:22:19;17.25;17.25;14.00
34176;PMS7003;20450;49.074;9.158;2022-12-07T14:27:50;21.75;21.75;15.50
34176;PMS7003;20450;49.074;9.158;2022-12-07T14:30:23;24.25;24.25;16.25
34176;PMS7003;20450;49.074;9.158;2022-12-07T14:32:57;22.00;22.00;17.75
34176;PMS7003;20450;49.074;9.158;2022-12-07T14:35:26;31.50;29.25;21.00